createdAt,value
2019-05-30T00:00:43.434Z,80.30
2019-05-30T00:03:14.067Z,81.20
2019-05-30T00:05:44.583Z,80.60
2019-05-30T00:08:15.349Z,80.40
2019-05-30T00:10:47.208Z,80.30
2019-05-30T00:13:17.796Z,80.40
2019-05-30T00:15:48.466Z,80.20
2019-05-30T00:18:19.040Z,79.70
2019-05-30T00:20:50.677Z,80.70
2019-05-30T00:23:22.130Z,80.00
2019-05-30T00:25:57.208Z,80.30
2019-05-30T00:28:28.150Z,80.90
2019-05-30T00:30:58.675Z,81.00
2019-05-30T00:33:29.204Z,80.00
2019-05-30T00:35:59.892Z,80.80
2019-05-30T00:38:30.475Z,80.10
2019-05-30T00:41:02.097Z,80.80
2019-05-30T00:43:33.102Z,81.90
2019-05-30T00:46:04.223Z,81.90
2019-05-30T00:48:34.813Z,82.00
2019-05-30T00:51:08.163Z,81.60
2019-05-30T00:53:38.895Z,81.40
2019-05-30T00:56:09.633Z,81.90
2019-05-30T00:58:40.196Z,81.40
2019-05-30T01:01:10.934Z,81.60
2019-05-30T01:03:42.132Z,82.10
2019-05-30T01:06:12.647Z,82.60
2019-05-30T01:08:44.163Z,82.40
2019-05-30T01:11:14.717Z,82.70
2019-05-30T01:13:45.175Z,82.00
2019-05-30T01:16:16.104Z,82.30
2019-05-30T01:18:46.638Z,82.10
2019-05-30T01:21:18.191Z,82.20
2019-05-30T01:23:48.728Z,81.80
2019-05-30T01:26:19.963Z,81.60
2019-05-30T01:28:50.805Z,81.40
2019-05-30T01:31:21.395Z,81.20
2019-05-30T01:33:51.936Z,81.00
2019-05-30T01:36:22.820Z,81.30
2019-05-30T01:38:53.430Z,81.70
2019-05-30T01:41:24.115Z,80.70
2019-05-30T01:43:55.245Z,80.90
2019-05-30T01:46:25.800Z,80.20
2019-05-30T01:48:58.088Z,80.50
2019-05-30T01:51:28.741Z,80.70
2019-05-30T01:54:00.408Z,80.90
2019-05-30T01:56:31.407Z,80.90
2019-05-30T01:59:02.680Z,81.10
2019-05-30T02:01:33.299Z,81.40
2019-05-30T02:04:05.118Z,81.80
2019-05-30T02:06:38.174Z,80.60
2019-05-30T02:09:10.176Z,81.90
2019-05-30T02:11:40.719Z,81.70
2019-05-30T02:14:18.112Z,81.50
2019-05-30T02:16:49.779Z,81.30
2019-05-30T02:19:24.134Z,81.50
2019-05-30T02:21:56.272Z,80.20
2019-05-30T02:24:28.048Z,80.10
2019-05-30T02:26:59.976Z,80.30
2019-05-30T02:29:30.600Z,80.60
2019-05-30T02:32:02.939Z,79.90
2019-05-30T02:34:33.724Z,79.70
2019-05-30T02:37:06.113Z,79.50
2019-05-30T02:39:37.393Z,78.70
2019-05-30T02:42:09.622Z,79.80
2019-05-30T02:44:40.340Z,79.80
2019-05-30T02:47:11.505Z,79.10
2019-05-30T02:49:42.309Z,80.60
2019-05-30T02:52:13.198Z,79.80
2019-05-30T02:54:44.085Z,79.90
2019-05-30T02:57:14.677Z,79.70
2019-05-30T02:59:46.537Z,80.50
2019-05-30T03:02:17.854Z,79.00
2019-05-30T03:04:49.943Z,80.60
2019-05-30T03:07:20.752Z,81.10
2019-05-30T03:09:51.940Z,81.10
2019-05-30T03:12:22.949Z,81.50
2019-05-30T03:14:53.378Z,81.50
2019-05-30T03:17:25.537Z,81.30
2019-05-30T03:19:56.466Z,81.10
2019-05-30T03:22:27.184Z,81.40
2019-05-30T03:24:57.723Z,80.90
2019-05-30T03:27:28.251Z,81.30
2019-05-30T03:29:59.317Z,81.70
2019-05-30T03:33:02.036Z,81.80
2019-05-30T03:35:09.215Z,82.40
2019-05-30T03:37:36.599Z,82.30
2019-05-30T03:40:08.307Z,82.40
2019-05-30T03:42:42.605Z,81.90
2019-05-30T03:45:16.185Z,81.30
2019-05-30T03:47:51.454Z,81.80
2019-05-30T03:50:25.301Z,81.80
2019-05-30T03:52:57.807Z,80.90
2019-05-30T03:55:30.019Z,81.10
2019-05-30T03:58:12.258Z,81.10
2019-05-30T04:00:51.490Z,80.50
2019-05-30T04:03:51.386Z,79.60
2019-05-30T04:06:29.111Z,79.50
2019-05-30T04:09:03.119Z,80.60
2019-05-30T04:11:47.935Z,80.40
2019-05-30T04:14:23.617Z,80.00
2019-05-30T04:16:54.785Z,80.30
2019-05-30T04:19:25.684Z,79.30
2019-05-30T04:21:57.019Z,80.30
2019-05-30T04:24:27.643Z,80.90
2019-05-30T04:26:58.253Z,80.40
2019-05-30T04:29:28.800Z,80.30
2019-05-30T04:31:59.307Z,82.00
2019-05-30T04:34:31.623Z,80.30
2019-05-30T04:37:02.227Z,80.40
2019-05-30T04:39:32.947Z,81.20
2019-05-30T04:42:03.564Z,80.80
2019-05-30T04:44:34.209Z,81.00
2019-05-30T04:47:05.117Z,79.90
2019-05-30T04:49:35.684Z,80.30
2019-05-30T04:52:11.318Z,80.30
2019-05-30T04:54:39.644Z,79.90
2019-05-30T04:57:11.183Z,80.40
2019-05-30T04:59:43.670Z,79.90
2019-05-30T05:02:15.745Z,79.80
2019-05-30T05:04:46.483Z,80.10
2019-05-30T05:07:17.835Z,80.10
2019-05-30T05:09:48.538Z,80.50
2019-05-30T05:12:20.385Z,80.20
2019-05-30T05:14:50.919Z,79.40
2019-05-30T05:17:22.966Z,78.80
2019-05-30T05:19:53.611Z,78.70
2019-05-30T05:22:24.106Z,77.10
2019-05-30T05:24:54.703Z,75.50
2019-05-30T05:27:25.330Z,76.00
2019-05-30T05:29:55.925Z,75.50
2019-05-30T05:32:26.421Z,75.20
2019-05-30T05:34:57.708Z,74.70
2019-05-30T05:37:28.566Z,74.70
2019-05-30T05:39:59.640Z,74.80
2019-05-30T05:42:30.341Z,74.50
2019-05-30T05:45:00.866Z,74.00
2019-05-30T05:47:31.413Z,73.10
2019-05-30T05:50:02.167Z,73.00
2019-05-30T05:52:32.885Z,72.50
2019-05-30T05:55:04.255Z,73.40
2019-05-30T05:57:34.937Z,72.60
2019-05-30T06:00:06.500Z,71.30
2019-05-30T06:02:37.524Z,71.10
2019-05-30T06:05:08.680Z,70.30
2019-05-30T06:07:39.409Z,70.40
2019-05-30T06:10:11.150Z,70.60
2019-05-30T06:12:41.859Z,70.40
2019-05-30T06:15:12.608Z,71.10
2019-05-30T06:17:43.154Z,72.30
2019-05-30T06:20:14.180Z,70.60
2019-05-30T06:22:44.631Z,70.50
2019-05-30T06:25:15.921Z,70.70
2019-05-30T06:27:49.852Z,70.20
2019-05-30T06:30:20.483Z,70.20
2019-05-30T06:32:51.070Z,69.90
2019-05-30T06:35:23.034Z,69.90
2019-05-30T06:37:54.760Z,69.30
2019-05-30T06:40:25.637Z,69.30
2019-05-30T06:42:56.881Z,68.50
2019-05-30T06:45:28.384Z,68.40
2019-05-30T06:47:59.094Z,68.80
2019-05-30T06:50:30.836Z,68.60
2019-05-30T06:53:01.442Z,69.10
2019-05-30T06:55:32.367Z,69.10
2019-05-30T06:58:02.853Z,69.30
2019-05-30T07:00:33.544Z,68.70
2019-05-30T07:03:05.285Z,67.60
2019-05-30T07:05:36.781Z,68.50
2019-05-30T07:08:07.596Z,68.90
2019-05-30T07:10:38.291Z,69.00
2019-05-30T07:13:09.195Z,68.90
2019-05-30T07:15:39.995Z,69.50
2019-05-30T07:18:11.892Z,68.70
2019-05-30T07:20:42.633Z,68.50
2019-05-30T07:23:13.152Z,68.60
2019-05-30T07:25:43.651Z,68.50
2019-05-30T07:28:14.444Z,69.10
2019-05-30T07:30:45.010Z,68.70
2019-05-30T07:33:15.541Z,68.70
2019-05-30T07:35:46.049Z,69.00
2019-05-30T07:38:16.601Z,68.50
2019-05-30T07:40:47.847Z,68.70
2019-05-30T07:43:19.565Z,68.60
2019-05-30T07:45:58.025Z,67.40
2019-05-30T07:48:24.006Z,67.00
2019-05-30T07:50:54.525Z,66.30
2019-05-30T07:53:25.053Z,65.80
2019-05-30T07:55:55.587Z,65.50
2019-05-30T07:58:27.065Z,66.10
2019-05-30T08:01:02.957Z,66.10
2019-05-30T08:03:38.876Z,64.80
2019-05-30T08:06:10.127Z,63.00
2019-05-30T08:08:40.929Z,61.70
2019-05-30T08:11:12.479Z,60.20
2019-05-30T08:13:43.023Z,59.10
2019-05-30T08:16:13.687Z,59.10
2019-05-30T08:18:44.379Z,59.10
2019-05-30T08:21:15.007Z,59.30
2019-05-30T08:23:45.536Z,58.80
2019-05-30T08:26:18.393Z,58.30
2019-05-30T08:28:49.103Z,58.20
2019-05-30T08:31:21.241Z,58.30
2019-05-30T08:33:51.816Z,58.90
2019-05-30T08:36:22.481Z,58.50
2019-05-30T08:38:53.098Z,58.30
2019-05-30T08:41:24.215Z,57.50
2019-05-30T08:43:55.157Z,55.40
2019-05-30T08:46:25.740Z,56.00
2019-05-30T08:48:56.261Z,55.00
2019-05-30T08:51:26.997Z,54.90
2019-05-30T08:53:57.764Z,55.10
2019-05-30T08:56:28.709Z,56.40
2019-05-30T08:59:00.067Z,55.60
2019-05-30T09:01:30.681Z,54.40
2019-05-30T09:04:01.656Z,55.30
2019-05-30T09:06:32.722Z,56.90
2019-05-30T09:09:03.672Z,57.80
2019-05-30T09:11:34.302Z,58.40
2019-05-30T09:14:05.279Z,57.20
2019-05-30T09:16:35.883Z,57.10
2019-05-30T09:19:06.547Z,58.20
2019-05-30T09:21:38.738Z,59.00
2019-05-30T09:24:09.338Z,58.60
2019-05-30T09:26:44.197Z,58.40
2019-05-30T09:29:11.990Z,57.10
2019-05-30T09:31:48.612Z,57.30
2019-05-30T09:34:20.378Z,57.60
2019-05-30T09:36:52.871Z,58.10
2019-05-30T09:39:29.820Z,57.80
2019-05-30T09:42:05.666Z,58.40
2019-05-30T09:44:40.976Z,58.60
2019-05-30T09:47:12.858Z,59.80
2019-05-30T09:49:44.671Z,58.50
2019-05-30T09:52:16.091Z,58.10
2019-05-30T09:54:48.025Z,58.80
2019-05-30T09:57:18.639Z,59.10
2019-05-30T09:59:50.491Z,59.80
2019-05-30T10:02:21.042Z,59.50
2019-05-30T10:04:52.602Z,58.30
2019-05-30T10:07:23.163Z,58.70
2019-05-30T10:09:54.378Z,59.00
2019-05-30T10:12:24.936Z,59.50
2019-05-30T10:14:57.029Z,58.90
2019-05-30T10:17:27.648Z,56.70
2019-05-30T10:19:58.956Z,55.80
2019-05-30T10:22:30.255Z,55.40
2019-05-30T10:25:02.103Z,54.70
2019-05-30T10:27:32.798Z,54.10
2019-05-30T10:30:03.520Z,54.50
2019-05-30T10:32:38.797Z,53.30
2019-05-30T10:35:14.138Z,50.50
2019-05-30T10:37:48.940Z,49.00
2019-05-30T10:40:20.707Z,49.20
2019-05-30T10:42:53.122Z,48.50
2019-05-30T10:45:24.434Z,49.30
2019-05-30T10:47:55.070Z,50.70
2019-05-30T10:50:27.385Z,50.70
2019-05-30T10:52:59.979Z,50.10
2019-05-30T10:55:31.328Z,50.20
2019-05-30T10:58:02.258Z,51.00
2019-05-30T11:01:04.333Z,51.50
2019-05-30T11:03:35.130Z,49.60
2019-05-30T11:06:34.508Z,46.90
2019-05-30T11:09:06.065Z,44.20
2019-05-30T11:11:37.015Z,43.60
2019-05-30T11:14:07.619Z,44.50
2019-05-30T11:16:40.807Z,45.70
2019-05-30T11:19:11.638Z,46.50
2019-05-30T11:21:42.428Z,45.30
2019-05-30T11:24:13.312Z,44.10
2019-05-30T11:26:46.458Z,44.40
2019-05-30T11:29:17.914Z,42.90
2019-05-30T11:31:49.338Z,43.30
2019-05-30T11:34:20.140Z,41.80
2019-05-30T11:36:51.050Z,41.60
2019-05-30T11:39:21.665Z,40.20
2019-05-30T11:41:53.266Z,40.50
2019-05-30T11:44:25.375Z,41.80
2019-05-30T11:46:57.676Z,42.30
2019-05-30T11:49:30.272Z,43.50
2019-05-30T11:52:00.820Z,43.00
2019-05-30T11:54:31.405Z,43.70
2019-05-30T11:57:02.050Z,44.50
2019-05-30T11:59:32.609Z,44.90
2019-05-30T12:02:09.696Z,46.40
2019-05-30T12:04:43.743Z,46.30
2019-05-30T12:07:14.664Z,46.20
2019-05-30T12:09:45.311Z,44.40
2019-05-30T12:12:15.902Z,43.50
2019-05-30T12:14:46.335Z,40.40
2019-05-30T12:17:17.270Z,37.70
2019-05-30T12:19:47.820Z,36.40
2019-05-30T12:22:18.309Z,36.60
2019-05-30T12:24:49.726Z,36.80
2019-05-30T12:27:20.267Z,36.10
2019-05-30T12:29:51.985Z,36.10
2019-05-30T12:32:22.671Z,37.80
2019-05-30T12:34:56.283Z,39.00
2019-05-30T12:37:26.840Z,41.10
2019-05-30T12:39:58.684Z,42.70
2019-05-30T12:42:29.337Z,43.60
2019-05-30T12:45:06.700Z,45.10
2019-05-30T12:47:33.634Z,44.80
2019-05-30T12:50:05.295Z,46.00
2019-05-30T12:52:35.812Z,46.80
2019-05-30T12:55:07.179Z,46.90
2019-05-30T12:57:37.679Z,46.40
2019-05-30T13:00:16.927Z,45.80
2019-05-30T13:02:41.089Z,43.50
2019-05-30T13:05:15.006Z,42.30
2019-05-30T13:07:45.583Z,42.80
2019-05-30T13:10:18.317Z,43.40
2019-05-30T13:12:48.910Z,43.90
2019-05-30T13:15:19.636Z,43.90
2019-05-30T13:17:50.336Z,44.20
2019-05-30T13:20:21.114Z,43.70
2019-05-30T13:22:51.823Z,41.70
2019-05-30T13:25:23.524Z,39.50
2019-05-30T13:27:54.081Z,38.10
2019-05-30T13:30:25.207Z,37.60
2019-05-30T13:32:56.577Z,37.90
2019-05-30T13:35:27.337Z,36.90
2019-05-30T13:37:59.104Z,35.00
2019-05-30T13:40:30.390Z,34.80
2019-05-30T13:43:01.969Z,35.40
2019-05-30T13:45:33.779Z,36.40
2019-05-30T13:48:04.860Z,37.30
2019-05-30T13:50:36.206Z,39.00
2019-05-30T13:53:07.492Z,39.50
2019-05-30T13:55:38.318Z,40.90
2019-05-30T13:58:10.672Z,41.40
2019-05-30T14:00:41.896Z,42.10
2019-05-30T14:03:13.774Z,43.30
2019-05-30T14:05:44.974Z,43.70
2019-05-30T14:08:16.815Z,42.90
2019-05-30T14:10:48.712Z,43.30
2019-05-30T14:13:19.733Z,43.40
2019-05-30T14:15:50.528Z,44.00
2019-05-30T14:18:21.369Z,43.70
2019-05-30T14:20:51.967Z,43.50
2019-05-30T14:23:22.610Z,44.30
2019-05-30T14:25:53.750Z,43.30
2019-05-30T14:28:24.577Z,43.70
2019-05-30T14:30:55.305Z,44.20
2019-05-30T14:33:25.948Z,43.40
2019-05-30T14:35:57.152Z,43.50
2019-05-30T14:38:28.240Z,43.40
2019-05-30T14:40:59.858Z,43.00
2019-05-30T14:43:30.724Z,43.70
2019-05-30T14:46:01.522Z,43.90
2019-05-30T14:48:32.101Z,43.90
2019-05-30T14:51:03.014Z,44.60
2019-05-30T14:53:34.273Z,44.90
2019-05-30T14:56:05.044Z,45.10
2019-05-30T14:58:35.603Z,45.10
2019-05-30T15:01:07.125Z,45.00
2019-05-30T15:03:38.043Z,46.10
2019-05-30T15:06:12.746Z,46.30
2019-05-30T15:08:41.509Z,45.90
2019-05-30T15:11:13.778Z,45.00
2019-05-30T15:13:45.618Z,44.00
2019-05-30T15:16:17.248Z,43.40
2019-05-30T15:18:50.341Z,43.90
2019-05-30T15:21:21.664Z,43.70
2019-05-30T15:23:52.416Z,43.50
2019-05-30T15:26:32.105Z,43.40
2019-05-30T15:29:14.373Z,43.50
2019-05-30T15:31:45.889Z,43.40
2019-05-30T15:34:16.820Z,42.80
2019-05-30T15:36:53.944Z,42.90
2019-05-30T15:39:32.232Z,43.20
2019-05-30T15:41:56.943Z,43.10
2019-05-30T15:44:27.501Z,43.20
2019-05-30T15:46:58.065Z,43.20
2019-05-30T15:49:28.555Z,43.10
2019-05-30T15:52:00.171Z,43.20
2019-05-30T15:54:32.768Z,43.30
2019-05-30T15:57:05.451Z,42.90
2019-05-30T15:59:38.948Z,42.20
2019-05-30T16:02:09.913Z,42.60
2019-05-30T16:04:40.519Z,41.80
2019-05-30T16:07:11.085Z,41.50
2019-05-30T16:09:46.974Z,41.80
2019-05-30T16:12:15.056Z,42.60
2019-05-30T16:14:45.696Z,43.20
2019-05-30T16:17:17.800Z,43.80
2019-05-30T16:19:48.607Z,43.90
2019-05-30T16:22:20.450Z,43.90
2019-05-30T16:24:51.654Z,44.20
2019-05-30T16:27:22.507Z,43.60
2019-05-30T16:29:53.480Z,43.90
2019-05-30T16:32:24.625Z,44.00
2019-05-30T16:34:55.471Z,44.40
2019-05-30T16:37:26.370Z,44.50
2019-05-30T16:40:05.717Z,44.40
2019-05-30T16:42:29.267Z,44.50
2019-05-30T16:45:00.199Z,44.30
2019-05-30T16:47:30.784Z,44.50
2019-05-30T16:50:01.478Z,44.50
2019-05-30T16:52:32.978Z,44.60
2019-05-30T16:55:04.124Z,44.60
2019-05-30T16:57:35.333Z,45.00
2019-05-30T17:00:06.897Z,45.10
2019-05-30T17:02:37.598Z,44.50
2019-05-30T17:05:08.347Z,44.90
2019-05-30T17:07:39.287Z,45.40
2019-05-30T17:10:22.155Z,45.80
2019-05-30T17:12:44.252Z,46.00
2019-05-30T17:15:17.673Z,46.30
2019-05-30T17:17:48.512Z,46.60
2019-05-30T17:20:20.533Z,46.70
2019-05-30T17:22:56.355Z,46.80
2019-05-30T17:25:29.526Z,47.00
2019-05-30T17:28:01.424Z,47.50
2019-05-30T17:30:32.254Z,47.80
2019-05-30T17:33:03.108Z,48.30
2019-05-30T17:35:33.868Z,48.30
2019-05-30T17:38:04.862Z,48.80
2019-05-30T17:40:44.463Z,48.80
2019-05-30T17:43:08.122Z,49.20
2019-05-30T17:45:38.852Z,49.30
2019-05-30T17:48:16.452Z,49.30
2019-05-30T17:50:41.859Z,49.40
2019-05-30T17:53:12.604Z,49.60
2019-05-30T17:55:43.798Z,49.90
2019-05-30T17:58:14.551Z,50.30
2019-05-30T18:00:45.193Z,50.50
2019-05-30T18:03:17.036Z,50.60
2019-05-30T18:05:47.862Z,51.10
2019-05-30T18:08:18.486Z,51.50
2019-05-30T18:10:53.844Z,52.00
2019-05-30T18:13:21.427Z,51.90
2019-05-30T18:15:52.323Z,52.50
2019-05-30T18:18:23.170Z,52.70
2019-05-30T18:20:54.241Z,53.00
2019-05-30T18:23:25.519Z,53.10
2019-05-30T18:25:56.246Z,53.10
2019-05-30T18:28:27.736Z,53.00
2019-05-30T18:30:58.730Z,53.50
2019-05-30T18:33:30.313Z,54.00
2019-05-30T18:36:01.380Z,54.00
2019-05-30T18:38:32.677Z,54.60
2019-05-30T18:41:11.619Z,54.80
2019-05-30T18:43:35.631Z,55.30
2019-05-30T18:46:06.414Z,55.30
2019-05-30T18:48:37.032Z,55.70
2019-05-30T18:51:07.662Z,55.80
2019-05-30T18:53:38.564Z,56.10
2019-05-30T18:56:10.343Z,56.40
2019-05-30T18:58:41.156Z,56.80
2019-05-30T19:01:12.424Z,57.00
2019-05-30T19:03:42.967Z,57.20
2019-05-30T19:06:13.700Z,57.20
2019-05-30T19:08:44.376Z,57.50
2019-05-30T19:11:27.206Z,57.70
2019-05-30T19:13:48.775Z,57.70
2019-05-30T19:16:20.278Z,58.00
2019-05-30T19:18:50.957Z,57.80
2019-05-30T19:21:21.765Z,58.00
2019-05-30T19:23:52.474Z,58.40
2019-05-30T19:26:23.264Z,58.60
2019-05-30T19:28:53.820Z,58.10
2019-05-30T19:31:24.523Z,58.50
2019-05-30T19:33:55.135Z,58.50
2019-05-30T19:36:26.781Z,58.70
2019-05-30T19:38:57.674Z,58.60
2019-05-30T19:41:44.391Z,58.70
2019-05-30T19:44:01.250Z,59.00
2019-05-30T19:46:32.265Z,58.80
2019-05-30T19:49:02.951Z,59.30
2019-05-30T19:51:34.957Z,59.40
2019-05-30T19:54:05.810Z,59.50
2019-05-30T19:56:39.946Z,59.80
2019-05-30T19:59:09.153Z,60.10
2019-05-30T20:01:40.034Z,60.00
2019-05-30T20:04:10.815Z,60.00
2019-05-30T20:06:42.511Z,60.40
2019-05-30T20:09:13.128Z,60.80
2019-05-30T20:11:43.867Z,59.80
2019-05-30T20:14:14.705Z,60.50
2019-05-30T20:16:45.294Z,60.70
2019-05-30T20:19:15.906Z,60.80
2019-05-30T20:21:46.789Z,61.60
2019-05-30T20:24:17.283Z,61.80
2019-05-30T20:26:47.856Z,61.70
2019-05-30T20:29:18.867Z,61.60
2019-05-30T20:31:49.720Z,63.00
2019-05-30T20:34:20.263Z,63.60
2019-05-30T20:36:50.849Z,63.10
2019-05-30T20:39:21.530Z,63.60
2019-05-30T20:41:54.023Z,63.80
2019-05-30T20:44:24.439Z,63.90
2019-05-30T20:46:55.125Z,64.40
2019-05-30T20:49:25.803Z,64.70
2019-05-30T20:51:56.373Z,64.20
2019-05-30T20:54:26.957Z,64.30
2019-05-30T20:56:57.656Z,64.40
2019-05-30T20:59:28.198Z,64.50
2019-05-30T21:01:58.720Z,64.90
2019-05-30T21:04:29.379Z,64.80
2019-05-30T21:06:59.975Z,65.00
2019-05-30T21:09:31.280Z,64.60
2019-05-30T21:12:04.520Z,64.70
2019-05-30T21:14:35.630Z,65.30
2019-05-30T21:17:06.287Z,65.50
2019-05-30T21:19:37.753Z,65.60
2019-05-30T21:22:08.334Z,65.50
2019-05-30T21:24:38.995Z,65.70
2019-05-30T21:27:09.528Z,65.80
2019-05-30T21:29:41.128Z,65.70
2019-05-30T21:32:11.630Z,66.20
2019-05-30T21:34:42.654Z,66.10
2019-05-30T21:37:14.547Z,66.50
2019-05-30T21:39:46.099Z,66.50
2019-05-30T21:42:16.699Z,67.20
2019-05-30T21:44:51.436Z,66.80
2019-05-30T21:47:19.762Z,67.30
2019-05-30T21:49:50.367Z,67.50
2019-05-30T21:52:21.928Z,67.70
2019-05-30T21:54:52.552Z,68.50
2019-05-30T21:57:23.089Z,68.50
2019-05-30T21:59:53.749Z,68.40
2019-05-30T22:02:24.309Z,68.40
2019-05-30T22:04:55.055Z,68.90
2019-05-30T22:07:26.037Z,69.30
2019-05-30T22:09:57.323Z,69.10
2019-05-30T22:12:28.250Z,68.80
2019-05-30T22:14:59.223Z,68.80
2019-05-30T22:17:30.817Z,68.80
2019-05-30T22:20:02.051Z,68.70
2019-05-30T22:22:33.077Z,69.00
2019-05-30T22:25:04.036Z,68.80
2019-05-30T22:27:34.665Z,69.10
2019-05-30T22:30:07.349Z,68.50
2019-05-30T22:32:37.990Z,68.30
2019-05-30T22:35:08.743Z,68.10
2019-05-30T22:37:39.285Z,68.10
2019-05-30T22:40:10.654Z,67.20
2019-05-30T22:42:42.149Z,67.50
2019-05-30T22:45:12.979Z,68.00
2019-05-30T22:47:44.201Z,68.40
2019-05-30T22:50:15.574Z,68.40
2019-05-30T22:52:46.844Z,68.10
2019-05-30T22:55:17.451Z,67.30
2019-05-30T22:57:48.367Z,67.20
2019-05-30T23:00:19.923Z,68.20
2019-05-30T23:02:51.905Z,68.70
2019-05-30T23:05:22.938Z,68.40
2019-05-30T23:07:53.597Z,68.20
2019-05-30T23:10:24.414Z,68.50
2019-05-30T23:12:56.079Z,69.50
2019-05-30T23:15:26.790Z,69.10
2019-05-30T23:17:57.450Z,68.80
2019-05-30T23:20:28.041Z,68.70
2019-05-30T23:22:58.900Z,69.00
2019-05-30T23:25:29.836Z,70.30
2019-05-30T23:28:00.421Z,70.00
2019-05-30T23:30:31.010Z,70.00
2019-05-30T23:33:01.669Z,69.60
2019-05-30T23:35:32.246Z,70.10
2019-05-30T23:38:02.937Z,69.80
2019-05-30T23:40:33.469Z,70.10
2019-05-30T23:43:04.112Z,70.10
2019-05-30T23:45:34.701Z,70.30
2019-05-30T23:48:05.286Z,70.10
2019-05-30T23:50:35.827Z,70.20
2019-05-30T23:53:06.343Z,70.00
2019-05-30T23:55:36.887Z,70.30
2019-05-30T23:58:07.404Z,71.10
